createdAt,value
2022-08-16T00:02:33.677Z,23.58
2022-08-16T00:05:06.096Z,23.56
2022-08-16T00:07:36.166Z,23.56
2022-08-16T00:10:08.051Z,23.55
2022-08-16T00:12:50.168Z,23.43
2022-08-16T00:15:22.057Z,23.37
2022-08-16T00:17:56.873Z,23.29
2022-08-16T00:20:29.552Z,23.23
2022-08-16T00:22:59.611Z,23.20
2022-08-16T00:26:33.493Z,23.18
2022-08-16T00:28:18.791Z,23.13
2022-08-16T00:30:48.262Z,23.06
2022-08-16T00:33:17.700Z,23.05
2022-08-16T00:35:51.005Z,23.04
2022-08-16T00:38:40.685Z,23.04
2022-08-16T00:41:11.351Z,22.99
2022-08-16T00:43:43.129Z,23.00
2022-08-16T00:46:33.913Z,23.01
2022-08-16T00:49:04.600Z,22.92
2022-08-16T00:51:36.676Z,22.88
2022-08-16T00:54:08.354Z,22.87
2022-08-16T00:56:58.075Z,22.82
2022-08-16T00:59:30.300Z,22.80
2022-08-16T01:02:30.645Z,22.77
2022-08-16T01:05:09.448Z,22.70
2022-08-16T01:07:52.145Z,22.62
2022-08-16T01:10:32.248Z,22.57
2022-08-16T01:13:05.400Z,22.48
2022-08-16T01:15:35.673Z,22.45
2022-08-16T01:18:05.924Z,22.44
2022-08-16T01:20:36.494Z,22.43
2022-08-16T01:23:13.041Z,22.42
2022-08-16T01:26:00.111Z,22.41
2022-08-16T01:28:45.302Z,22.37
2022-08-16T01:31:15.140Z,22.36
2022-08-16T01:33:45.473Z,22.39
2022-08-16T01:36:19.374Z,22.31
2022-08-16T01:38:57.365Z,22.27
2022-08-16T01:41:30.784Z,22.21
2022-08-16T01:44:01.638Z,22.21
2022-08-16T01:46:40.202Z,22.21
2022-08-16T01:49:13.074Z,22.22
2022-08-16T01:51:44.706Z,22.23
2022-08-16T01:54:15.516Z,22.23
2022-08-16T01:56:48.097Z,22.17
2022-08-16T01:59:18.780Z,22.13
2022-08-16T02:01:56.281Z,22.09
2022-08-16T02:04:49.282Z,22.05
2022-08-16T02:07:23.733Z,21.93
2022-08-16T02:09:57.522Z,21.86
2022-08-16T02:12:50.216Z,21.82
2022-08-16T02:15:24.855Z,21.83
2022-08-16T02:17:55.134Z,21.86
2022-08-16T02:20:26.135Z,21.86
2022-08-16T02:22:56.075Z,21.85
2022-08-16T02:25:25.514Z,21.82
2022-08-16T02:28:19.304Z,21.80
2022-08-16T02:30:51.609Z,21.75
2022-08-16T02:33:24.392Z,21.74
2022-08-16T02:35:58.336Z,21.73
2022-08-16T02:38:31.612Z,21.73
2022-08-16T02:41:01.912Z,21.77
2022-08-16T02:43:35.595Z,21.69
2022-08-16T02:46:07.895Z,21.65
2022-08-16T02:48:38.654Z,21.62
2022-08-16T02:51:10.901Z,21.63
2022-08-16T02:53:47.384Z,21.64
2022-08-16T02:56:19.012Z,21.68
2022-08-16T02:58:52.047Z,21.65
2022-08-16T03:01:24.988Z,21.61
2022-08-16T03:04:41.222Z,21.52
2022-08-16T03:06:56.453Z,21.52
2022-08-16T03:09:28.808Z,21.49
2022-08-16T03:12:00.999Z,21.51
2022-08-16T03:14:34.779Z,21.55
2022-08-16T03:17:04.229Z,21.59
2022-08-16T03:19:48.569Z,21.53
2022-08-16T03:22:27.750Z,21.45
2022-08-16T03:25:01.098Z,21.38
2022-08-16T03:27:32.198Z,21.31
2022-08-16T03:30:16.348Z,21.24
2022-08-16T03:32:51.222Z,21.23
2022-08-16T03:35:22.423Z,21.22
2022-08-16T03:38:02.506Z,21.17
2022-08-16T03:40:34.237Z,21.14
2022-08-16T03:43:20.792Z,21.15
2022-08-16T03:45:55.285Z,21.12
2022-08-16T03:48:36.208Z,21.09
2022-08-16T03:51:12.487Z,21.11
2022-08-16T03:53:42.558Z,21.13
2022-08-16T03:56:20.883Z,21.16
2022-08-16T03:58:52.601Z,21.14
2022-08-16T04:01:29.431Z,21.12
2022-08-16T04:03:59.468Z,21.03
2022-08-16T04:06:29.108Z,20.94
2022-08-16T04:08:58.569Z,20.91
2022-08-16T04:11:28.073Z,20.93
2022-08-16T04:14:08.960Z,20.95
2022-08-16T04:17:01.688Z,20.97
2022-08-16T04:19:31.778Z,20.98
2022-08-16T04:22:01.479Z,21.00
2022-08-16T04:24:38.063Z,21.00
2022-08-16T04:27:09.018Z,20.90
2022-08-16T04:29:44.008Z,20.80
2022-08-16T04:32:19.756Z,20.71
2022-08-16T04:34:49.818Z,20.68
2022-08-16T04:37:19.446Z,20.72
2022-08-16T04:39:55.605Z,20.70
2022-08-16T04:42:29.886Z,20.65
2022-08-16T04:45:05.331Z,20.60
2022-08-16T04:47:37.518Z,20.58
2022-08-16T04:50:11.067Z,20.60
2022-08-16T04:52:44.306Z,20.59
2022-08-16T04:55:20.029Z,20.62
2022-08-16T04:57:53.393Z,20.69
2022-08-16T05:00:30.989Z,20.71
2022-08-16T05:03:07.376Z,20.72
2022-08-16T05:05:45.480Z,20.76
2022-08-16T05:08:29.312Z,20.78
2022-08-16T05:11:01.403Z,20.85
2022-08-16T05:13:40.262Z,20.94
2022-08-16T05:16:20.375Z,21.03
2022-08-16T05:18:56.830Z,21.11
2022-08-16T05:21:28.437Z,21.15
2022-08-16T05:24:09.074Z,21.27
2022-08-16T05:26:43.138Z,21.38
2022-08-16T05:29:20.647Z,21.50
2022-08-16T05:31:53.255Z,21.57
2022-08-16T05:34:25.577Z,21.68
2022-08-16T05:36:57.375Z,21.79
2022-08-16T05:39:28.316Z,21.89
2022-08-16T05:41:58.688Z,21.98
2022-08-16T05:44:28.212Z,22.13
2022-08-16T05:47:00.179Z,22.19
2022-08-16T05:49:39.632Z,22.33
2022-08-16T05:52:11.514Z,22.01
2022-08-16T05:54:46.696Z,21.76
2022-08-16T05:57:17.311Z,22.09
2022-08-16T05:59:47.407Z,21.92
2022-08-16T06:02:21.876Z,21.82
2022-08-16T06:05:02.104Z,22.02
2022-08-16T06:07:32.123Z,21.97
2022-08-16T06:10:01.834Z,22.14
2022-08-16T06:12:31.954Z,22.00
2022-08-16T06:15:07.615Z,22.44
2022-08-16T06:17:41.513Z,22.83
2022-08-16T06:20:18.125Z,22.83
2022-08-16T06:22:57.672Z,22.81
2022-08-16T06:25:36.237Z,22.85
2022-08-16T06:28:09.756Z,23.26
2022-08-16T06:30:43.965Z,23.20
2022-08-16T06:33:22.126Z,23.64
2022-08-16T06:35:59.651Z,23.90
2022-08-16T06:38:33.723Z,23.64
2022-08-16T06:41:05.784Z,23.64
2022-08-16T06:43:35.631Z,23.92
2022-08-16T06:46:05.899Z,24.26
2022-08-16T06:48:42.914Z,24.59
2022-08-16T06:51:16.072Z,24.86
2022-08-16T06:53:45.522Z,24.93
2022-08-16T06:56:23.374Z,25.13
2022-08-16T06:58:54.092Z,25.24
2022-08-16T07:01:44.860Z,25.15
2022-08-16T07:04:13.433Z,25.27
2022-08-16T07:07:05.658Z,25.47
2022-08-16T07:09:35.472Z,25.50
2022-08-16T07:12:05.701Z,25.65
2022-08-16T07:14:35.558Z,25.70
2022-08-16T07:17:07.892Z,25.77
2022-08-16T07:20:30.062Z,25.78
2022-08-16T07:22:36.699Z,26.15
2022-08-16T07:25:08.975Z,26.49
2022-08-16T07:27:40.083Z,26.64
2022-08-16T07:30:45.874Z,25.94
2022-08-16T07:33:00.365Z,25.85
2022-08-16T07:35:29.824Z,26.21
2022-08-16T07:38:02.148Z,26.11
2022-08-16T07:40:59.151Z,26.00
2022-08-16T07:43:22.569Z,25.83
2022-08-16T07:45:53.246Z,25.84
2022-08-16T07:48:24.206Z,26.17
2022-08-16T07:50:56.527Z,26.92
2022-08-16T07:53:31.279Z,27.25
2022-08-16T07:56:01.155Z,27.51
2022-08-16T07:58:36.162Z,27.66
2022-08-16T08:01:10.450Z,27.73
2022-08-16T08:03:48.383Z,27.90
2022-08-16T08:06:19.738Z,27.66
2022-08-16T08:08:57.159Z,27.60
2022-08-16T08:11:28.845Z,27.93
2022-08-16T08:14:03.629Z,27.62
2022-08-16T08:16:33.927Z,27.64
2022-08-16T08:19:05.245Z,28.20
2022-08-16T08:22:00.603Z,28.50
2022-08-16T08:24:31.566Z,28.37
2022-08-16T08:27:04.041Z,28.18
2022-08-16T08:29:37.370Z,28.30
2022-08-16T08:32:57.757Z,28.27
2022-08-16T08:35:00.508Z,28.63
2022-08-16T08:37:54.157Z,28.59
2022-08-16T08:40:26.818Z,28.81
2022-08-16T08:43:00.807Z,29.00
2022-08-16T08:45:52.533Z,29.54
2022-08-16T08:48:33.518Z,29.79
2022-08-16T08:51:04.933Z,29.97
2022-08-16T08:53:34.699Z,29.74
2022-08-16T08:56:23.557Z,29.40
2022-08-16T08:58:58.295Z,29.49
2022-08-16T09:01:32.004Z,29.17
2022-08-16T09:04:06.870Z,29.48
2022-08-16T09:06:36.578Z,29.12
2022-08-16T09:09:16.745Z,28.79
2022-08-16T09:11:53.514Z,29.18
2022-08-16T09:14:27.195Z,28.95
2022-08-16T09:17:01.313Z,28.50
2022-08-16T09:19:34.023Z,28.74
2022-08-16T09:22:04.562Z,29.25
2022-08-16T09:24:52.859Z,29.05
2022-08-16T09:27:26.554Z,28.80
2022-08-16T09:29:59.967Z,29.03
2022-08-16T09:32:31.219Z,29.62
2022-08-16T09:35:01.756Z,30.27
2022-08-16T09:37:36.578Z,30.33
2022-08-16T09:40:31.734Z,29.76
2022-08-16T09:43:00.172Z,29.85
2022-08-16T09:45:31.260Z,30.26
2022-08-16T09:48:00.813Z,30.60
2022-08-16T09:50:37.199Z,30.78
2022-08-16T09:53:15.456Z,31.07
2022-08-16T09:55:49.495Z,31.34
2022-08-16T09:58:41.804Z,31.71
2022-08-16T10:01:12.787Z,31.36
2022-08-16T10:04:01.507Z,31.66
2022-08-16T10:06:33.697Z,32.23
2022-08-16T10:09:05.571Z,32.88
2022-08-16T10:11:50.605Z,34.24
2022-08-16T10:14:24.775Z,35.89
2022-08-16T10:17:03.830Z,38.31
2022-08-16T10:19:33.774Z,38.63
2022-08-16T10:22:05.259Z,39.89
2022-08-16T10:24:35.230Z,39.48
2022-08-16T10:27:25.735Z,39.18
2022-08-16T10:30:06.448Z,39.94
2022-08-16T10:32:43.023Z,39.84
2022-08-16T10:35:12.665Z,39.80
2022-08-16T10:37:42.229Z,39.37
2022-08-16T10:40:29.344Z,38.02
2022-08-16T10:43:00.083Z,36.79
2022-08-16T10:45:36.995Z,35.96
2022-08-16T10:48:27.251Z,35.41
2022-08-16T10:50:59.178Z,34.02
2022-08-16T10:53:32.950Z,32.97
2022-08-16T10:56:05.336Z,33.18
2022-08-16T10:58:53.393Z,33.63
2022-08-16T11:01:39.818Z,32.99
2022-08-16T11:07:08.211Z,33.61
2022-08-16T11:09:43.178Z,33.50
2022-08-16T11:12:14.829Z,33.46
2022-08-16T11:17:36.872Z,33.10
2022-08-16T11:23:06.996Z,32.58
2022-08-16T11:31:15.903Z,31.85
2022-08-16T11:33:55.459Z,32.01
2022-08-16T11:36:28.025Z,32.46
2022-08-16T11:38:58.814Z,32.30
2022-08-16T11:41:30.997Z,32.25
2022-08-16T11:44:01.925Z,32.79
2022-08-16T11:46:44.546Z,32.82
2022-08-16T11:49:18.126Z,32.57
2022-08-16T11:51:49.651Z,33.03
2022-08-16T11:54:21.360Z,33.00
2022-08-16T11:56:57.617Z,32.52
2022-08-16T11:59:29.247Z,32.57
2022-08-16T12:01:59.729Z,33.04
2022-08-16T12:04:32.479Z,32.89
2022-08-16T12:07:02.584Z,32.42
2022-08-16T12:09:33.374Z,33.06
2022-08-16T12:12:10.048Z,33.38
2022-08-16T12:14:39.515Z,33.18
2022-08-16T12:17:09.449Z,32.85
2022-08-16T12:19:41.527Z,31.93
2022-08-16T12:22:18.574Z,32.42
2022-08-16T12:24:51.972Z,32.60
2022-08-16T12:27:23.289Z,32.53
2022-08-16T12:29:53.919Z,32.68
2022-08-16T12:32:37.534Z,33.26
2022-08-16T12:35:13.006Z,33.66
2022-08-16T12:37:42.705Z,33.95
2022-08-16T12:40:24.419Z,34.24
2022-08-16T12:43:00.691Z,33.33
2022-08-16T12:45:31.362Z,33.66
2022-08-16T12:48:33.758Z,34.01
2022-08-16T12:51:13.537Z,33.51
2022-08-16T12:53:54.384Z,32.67
2022-08-16T12:56:26.076Z,32.56
2022-08-16T12:58:56.227Z,32.64
2022-08-16T13:01:27.532Z,32.41
2022-08-16T13:04:11.958Z,32.32
2022-08-16T13:06:52.581Z,32.66
2022-08-16T13:09:29.042Z,32.34
2022-08-16T13:12:04.361Z,32.39
2022-08-16T13:14:35.846Z,32.24
2022-08-16T13:17:06.745Z,32.22
2022-08-16T13:20:06.010Z,32.52
2022-08-16T13:22:29.290Z,32.29
2022-08-16T13:25:00.851Z,32.48
2022-08-16T13:27:59.441Z,32.47
2022-08-16T13:30:35.691Z,32.61
2022-08-16T13:33:10.794Z,32.16
2022-08-16T13:35:42.748Z,32.14
2022-08-16T13:38:25.075Z,32.38
2022-08-16T13:40:57.195Z,32.31
2022-08-16T13:43:27.835Z,32.75
2022-08-16T13:46:04.215Z,33.52
2022-08-16T13:48:43.249Z,33.92
2022-08-16T13:51:16.961Z,34.08
2022-08-16T13:53:55.466Z,33.83
2022-08-16T13:56:37.122Z,33.35
2022-08-16T13:59:13.973Z,33.20
2022-08-16T14:01:55.062Z,33.49
2022-08-16T14:04:26.696Z,33.27
2022-08-16T14:06:57.134Z,32.55
2022-08-16T14:09:30.057Z,32.87
2022-08-16T14:12:00.656Z,33.09
2022-08-16T14:14:30.422Z,33.43
2022-08-16T14:17:01.652Z,33.75
2022-08-16T14:19:31.926Z,33.66
2022-08-16T14:22:14.594Z,34.00
2022-08-16T14:24:47.904Z,33.86
2022-08-16T14:27:18.638Z,33.36
2022-08-16T14:29:49.873Z,33.31
2022-08-16T14:32:32.420Z,33.21
2022-08-16T14:35:02.895Z,33.60
2022-08-16T14:37:32.691Z,33.23
2022-08-16T14:40:05.902Z,33.83
2022-08-16T14:42:36.674Z,33.70
2022-08-16T14:45:07.613Z,33.06
2022-08-16T14:47:38.280Z,32.38
2022-08-16T14:50:08.288Z,32.15
2022-08-16T14:52:54.615Z,31.94
2022-08-16T14:55:29.944Z,32.15
2022-08-16T14:58:00.009Z,32.45
2022-08-16T15:00:33.800Z,32.36
2022-08-16T15:03:09.779Z,32.26
2022-08-16T15:05:39.748Z,32.28
2022-08-16T15:08:09.991Z,32.28
2022-08-16T15:10:44.837Z,32.18
2022-08-16T15:13:16.350Z,31.97
2022-08-16T15:15:56.369Z,32.35
2022-08-16T15:18:31.830Z,32.91
2022-08-16T15:21:02.193Z,32.62
2022-08-16T15:23:33.547Z,32.10
2022-08-16T15:26:07.973Z,31.83
2022-08-16T15:28:39.055Z,31.92
2022-08-16T15:31:13.195Z,31.87
2022-08-16T15:33:49.986Z,32.00
2022-08-16T15:36:21.321Z,32.32
2022-08-16T15:38:57.030Z,32.66
2022-08-16T15:41:54.196Z,33.01
2022-08-16T15:44:24.807Z,32.35
2022-08-16T15:46:58.819Z,32.20
2022-08-16T15:49:36.897Z,32.26
2022-08-16T15:52:10.495Z,32.06
2022-08-16T15:54:52.405Z,31.72
2022-08-16T15:57:25.898Z,31.88
2022-08-16T15:59:56.466Z,32.00
2022-08-16T16:02:35.278Z,32.09
2022-08-16T16:05:06.687Z,32.26
2022-08-16T16:07:36.893Z,32.59
2022-08-16T16:10:13.024Z,32.91
2022-08-16T16:12:51.429Z,32.21
2022-08-16T16:15:24.438Z,31.97
2022-08-16T16:17:54.403Z,31.61
2022-08-16T16:20:27.133Z,31.29
2022-08-16T16:22:58.940Z,31.35
2022-08-16T16:25:29.292Z,31.69
2022-08-16T16:28:02.678Z,32.00
2022-08-16T16:30:44.492Z,32.15
2022-08-16T16:33:15.862Z,32.42
2022-08-16T16:35:56.632Z,32.49
2022-08-16T16:38:30.871Z,32.90
2022-08-16T16:41:00.800Z,32.49
2022-08-16T16:43:33.405Z,31.91
2022-08-16T16:46:05.994Z,31.68
2022-08-16T16:48:54.081Z,31.44
2022-08-16T16:51:27.929Z,31.25
2022-08-16T16:53:57.851Z,31.56
2022-08-16T16:56:35.616Z,31.28
2022-08-16T16:59:08.229Z,31.07
2022-08-16T17:01:57.662Z,31.02
2022-08-16T17:04:32.725Z,31.40
2022-08-16T17:07:03.797Z,31.46
2022-08-16T17:09:40.346Z,31.45
2022-08-16T17:12:17.683Z,31.38
2022-08-16T17:14:57.589Z,31.48
2022-08-16T17:17:27.228Z,31.33
2022-08-16T17:19:59.477Z,31.02
2022-08-16T17:22:32.924Z,31.08
2022-08-16T17:25:02.715Z,30.78
2022-08-16T17:27:37.470Z,30.94
2022-08-16T17:30:15.112Z,30.77
2022-08-16T17:33:02.892Z,30.71
2022-08-16T17:35:34.826Z,30.78
2022-08-16T17:38:06.106Z,30.92
2022-08-16T17:40:46.626Z,31.04
2022-08-16T17:43:25.806Z,31.02
2022-08-16T17:45:58.516Z,31.05
2022-08-16T17:48:28.109Z,31.02
2022-08-16T17:50:57.612Z,30.75
2022-08-16T17:53:27.286Z,30.45
2022-08-16T17:55:57.168Z,30.52
2022-08-16T17:58:27.223Z,30.72
2022-08-16T18:01:01.751Z,31.02
2022-08-16T18:04:03.197Z,31.28
2022-08-16T18:06:25.654Z,31.36
2022-08-16T18:09:01.739Z,31.36
2022-08-16T18:11:35.390Z,31.32
2022-08-16T18:14:04.869Z,31.13
2022-08-16T18:16:36.881Z,31.28
2022-08-16T18:19:06.310Z,31.47
2022-08-16T18:21:48.286Z,31.52
2022-08-16T18:24:18.974Z,31.48
2022-08-16T18:26:48.577Z,31.47
2022-08-16T18:29:18.184Z,31.39
2022-08-16T18:31:51.010Z,31.34
2022-08-16T18:34:20.886Z,31.29
2022-08-16T18:36:50.997Z,31.24
2022-08-16T18:39:20.438Z,31.18
2022-08-16T18:41:49.940Z,31.11
2022-08-16T18:44:26.772Z,31.02
2022-08-16T18:47:00.706Z,30.90
2022-08-16T18:49:30.170Z,30.78
2022-08-16T18:52:00.156Z,30.68
2022-08-16T18:54:30.552Z,30.45
2022-08-16T18:57:02.438Z,30.33
2022-08-16T18:59:35.500Z,30.22
2022-08-16T19:02:07.601Z,30.12
2022-08-16T19:04:48.114Z,30.06
2022-08-16T19:07:30.428Z,30.08
2022-08-16T19:10:01.616Z,30.07
2022-08-16T19:12:37.948Z,30.02
2022-08-16T19:15:14.363Z,30.03
2022-08-16T19:17:47.890Z,30.00
2022-08-16T19:20:18.250Z,29.97
2022-08-16T19:23:05.865Z,29.91
2022-08-16T19:25:46.886Z,29.86
2022-08-16T19:28:58.758Z,29.87
2022-08-16T19:31:29.790Z,29.85
2022-08-16T19:34:09.984Z,29.79
2022-08-16T19:36:47.225Z,29.77
2022-08-16T19:39:19.869Z,29.75
2022-08-16T19:41:53.594Z,29.69
2022-08-16T19:44:24.375Z,29.67
2022-08-16T19:47:04.913Z,29.64
2022-08-16T19:52:44.268Z,29.51
2022-08-16T19:55:19.316Z,29.40
2022-08-16T19:57:51.829Z,29.40
2022-08-16T20:00:21.554Z,29.44
2022-08-16T20:03:05.111Z,29.42
2022-08-16T20:05:36.004Z,29.43
2022-08-16T20:08:08.636Z,29.43
2022-08-16T20:10:38.362Z,29.41
2022-08-16T20:13:12.944Z,29.39
2022-08-16T20:15:42.578Z,29.26
2022-08-16T20:18:17.169Z,29.26
2022-08-16T20:20:55.855Z,29.24
2022-08-16T20:23:27.951Z,29.23
2022-08-16T20:25:58.224Z,29.24
2022-08-16T20:28:39.507Z,29.26
2022-08-16T20:31:17.527Z,29.25
2022-08-16T20:33:47.112Z,29.18
2022-08-16T20:36:16.905Z,29.16
2022-08-16T20:38:50.166Z,29.18
2022-08-16T20:41:19.780Z,29.14
2022-08-16T20:43:50.562Z,29.11
2022-08-16T20:46:24.773Z,29.12
2022-08-16T20:48:54.404Z,29.08
2022-08-16T20:51:23.993Z,29.05
2022-08-16T20:53:56.208Z,28.99
2022-08-16T20:56:26.263Z,28.95
2022-08-16T20:58:55.874Z,28.95
2022-08-16T21:01:25.511Z,28.89
2022-08-16T21:04:15.127Z,28.61
2022-08-16T21:06:54.331Z,28.68
2022-08-16T21:09:27.182Z,28.65
2022-08-16T21:11:57.710Z,28.52
2022-08-16T21:14:27.355Z,28.51
2022-08-16T21:16:57.033Z,28.40
2022-08-16T21:19:27.309Z,28.39
